createdAt,value
2022-08-19T00:00:07.077Z,73.61
2022-08-19T00:01:07.066Z,73.94
2022-08-19T00:02:07.075Z,74.16
2022-08-19T00:03:07.057Z,74.28
2022-08-19T00:04:07.039Z,74.32
2022-08-19T00:05:07.040Z,74.31
2022-08-19T00:06:07.038Z,74.35
2022-08-19T00:07:07.026Z,74.35
2022-08-19T00:08:06.992Z,74.38
2022-08-19T00:09:07.007Z,74.43
2022-08-19T00:10:06.982Z,74.35
2022-08-19T00:11:06.964Z,74.34
2022-08-19T00:12:06.956Z,74.35
2022-08-19T00:13:06.937Z,74.33
2022-08-19T00:14:06.938Z,74.40
2022-08-19T00:15:06.907Z,74.37
2022-08-19T00:16:07.895Z,74.39
2022-08-19T00:17:06.893Z,74.41
2022-08-19T00:18:06.865Z,74.39
2022-08-19T00:19:06.855Z,74.40
2022-08-19T00:20:06.847Z,74.42
2022-08-19T00:21:06.836Z,74.46
2022-08-19T00:22:06.830Z,74.49
2022-08-19T00:23:06.833Z,74.43
2022-08-19T00:24:06.800Z,74.41
2022-08-19T00:25:06.793Z,74.45
2022-08-19T00:26:06.772Z,74.60
2022-08-19T00:27:25.810Z,74.73
2022-08-19T00:28:07.772Z,74.76
2022-08-19T00:29:06.752Z,74.84
2022-08-19T00:30:06.721Z,74.87
2022-08-19T00:31:06.718Z,74.93
2022-08-19T00:32:06.706Z,75.02
2022-08-19T00:33:06.699Z,75.25
2022-08-19T00:34:06.693Z,75.40
2022-08-19T00:35:06.678Z,75.53
2022-08-19T00:36:06.658Z,75.58
2022-08-19T00:37:06.661Z,75.83
2022-08-19T00:38:06.631Z,76.05
2022-08-19T00:39:06.644Z,76.12
2022-08-19T00:40:06.644Z,76.08
2022-08-19T00:41:06.608Z,76.01
2022-08-19T00:42:06.591Z,75.94
2022-08-19T00:43:06.583Z,75.97
2022-08-19T00:44:06.593Z,76.03
2022-08-19T00:45:06.547Z,76.13
2022-08-19T00:46:06.541Z,76.18
2022-08-19T00:47:06.532Z,76.22
2022-08-19T00:48:13.467Z,76.11
2022-08-19T00:49:07.530Z,76.02
2022-08-19T00:50:06.502Z,76.05
2022-08-19T00:51:06.495Z,76.01
2022-08-19T00:52:06.463Z,75.97
2022-08-19T00:53:06.461Z,75.97
2022-08-19T00:54:06.455Z,75.81
2022-08-19T00:55:06.453Z,75.68
2022-08-19T00:56:06.431Z,75.60
2022-08-19T00:57:06.414Z,75.50
2022-08-19T00:58:06.408Z,75.59
2022-08-19T00:59:06.400Z,75.65
2022-08-19T01:00:06.399Z,75.68
2022-08-19T01:01:06.373Z,75.77
2022-08-19T01:02:06.356Z,75.76
2022-08-19T01:03:06.348Z,75.73
2022-08-19T01:04:06.324Z,75.71
2022-08-19T01:05:06.336Z,75.71
2022-08-19T01:06:06.318Z,75.71
2022-08-19T01:07:06.304Z,75.72
2022-08-19T01:08:06.286Z,75.64
2022-08-19T01:09:06.275Z,75.57
2022-08-19T01:10:06.284Z,75.54
2022-08-19T01:11:06.259Z,75.50
2022-08-19T01:12:06.239Z,75.47
2022-08-19T01:13:06.231Z,75.46
2022-08-19T01:14:06.213Z,75.42
2022-08-19T01:15:06.230Z,75.40
2022-08-19T01:16:06.202Z,75.52
2022-08-19T01:17:06.194Z,75.58
2022-08-19T01:18:06.174Z,75.58
2022-08-19T01:19:06.162Z,75.68
2022-08-19T01:20:06.170Z,75.87
2022-08-19T01:21:06.141Z,76.08
2022-08-19T01:22:14.339Z,76.20
2022-08-19T01:23:07.116Z,76.20
2022-08-19T01:24:06.106Z,76.12
2022-08-19T01:25:08.886Z,76.16
2022-08-19T01:26:07.093Z,76.15
2022-08-19T01:27:06.071Z,76.15
2022-08-19T01:28:11.083Z,76.15
2022-08-19T01:29:07.038Z,76.09
2022-08-19T01:30:06.050Z,76.06
2022-08-19T01:31:08.067Z,76.02
2022-08-19T01:32:06.014Z,75.93
2022-08-19T01:33:05.999Z,75.85
2022-08-19T01:34:05.992Z,75.74
2022-08-19T01:35:06.000Z,75.68
2022-08-19T01:36:05.965Z,75.68
2022-08-19T01:37:05.957Z,75.67
2022-08-19T01:38:05.945Z,75.66
2022-08-19T01:39:05.921Z,75.69
2022-08-19T01:40:09.314Z,75.73
2022-08-19T01:41:10.932Z,75.81
2022-08-19T01:42:06.899Z,75.84
2022-08-19T01:43:05.887Z,75.88
2022-08-19T01:44:17.789Z,75.95
2022-08-19T01:45:06.871Z,75.98
2022-08-19T01:46:05.852Z,76.07
2022-08-19T01:47:05.837Z,76.16
2022-08-19T01:48:05.824Z,76.28
2022-08-19T01:49:05.825Z,76.46
2022-08-19T01:50:05.834Z,76.63
2022-08-19T01:51:05.791Z,76.79
2022-08-19T01:52:05.779Z,76.87
2022-08-19T01:53:06.483Z,76.89
2022-08-19T01:54:05.752Z,76.91
2022-08-19T01:55:05.744Z,76.96
2022-08-19T01:56:05.754Z,76.97
2022-08-19T01:57:05.716Z,77.03
2022-08-19T01:58:05.705Z,77.14
2022-08-19T01:59:05.697Z,77.21
2022-08-19T02:00:05.704Z,77.26
2022-08-19T02:01:05.728Z,77.24
2022-08-19T02:02:05.661Z,77.28
2022-08-19T02:03:05.644Z,77.33
2022-08-19T02:04:05.646Z,77.32
2022-08-19T02:05:05.646Z,77.33
2022-08-19T02:06:05.617Z,77.35
2022-08-19T02:07:05.596Z,77.39
2022-08-19T02:08:05.595Z,77.44
2022-08-19T02:09:05.585Z,77.44
2022-08-19T02:10:08.846Z,77.41
2022-08-19T02:11:06.578Z,77.42
2022-08-19T02:12:05.566Z,77.43
2022-08-19T02:13:05.532Z,77.39
2022-08-19T02:14:05.526Z,77.33
2022-08-19T02:15:05.507Z,77.23
2022-08-19T02:16:05.529Z,77.09
2022-08-19T02:17:05.478Z,77.07
2022-08-19T02:18:05.483Z,77.04
2022-08-19T02:19:05.463Z,77.01
2022-08-19T02:20:05.447Z,76.94
2022-08-19T02:21:05.446Z,76.79
2022-08-19T02:22:05.445Z,76.80
2022-08-19T02:23:05.409Z,76.83
2022-08-19T02:24:06.401Z,76.83
2022-08-19T02:25:05.389Z,76.81
2022-08-19T02:26:05.379Z,76.82
2022-08-19T02:27:05.379Z,76.77
2022-08-19T02:28:05.358Z,76.77
2022-08-19T02:29:05.349Z,76.79
2022-08-19T02:30:05.331Z,76.79
2022-08-19T02:31:05.321Z,76.77
2022-08-19T02:32:05.332Z,76.70
2022-08-19T02:33:05.306Z,76.73
2022-08-19T02:34:05.288Z,76.77
2022-08-19T02:35:12.497Z,76.82
2022-08-19T02:36:06.265Z,76.82
2022-08-19T02:37:05.270Z,76.83
2022-08-19T02:38:05.238Z,76.86
2022-08-19T02:39:05.234Z,76.89
2022-08-19T02:40:05.299Z,76.89
2022-08-19T02:41:06.207Z,76.88
2022-08-19T02:42:05.201Z,76.94
2022-08-19T02:43:05.202Z,76.98
2022-08-19T02:44:29.201Z,77.12
2022-08-19T02:45:06.152Z,77.16
2022-08-19T02:46:05.150Z,77.26
2022-08-19T02:47:05.132Z,77.30
2022-08-19T02:48:10.098Z,77.34
2022-08-19T02:49:06.110Z,77.38
2022-08-19T02:50:05.097Z,77.37
2022-08-19T02:51:05.090Z,77.40
2022-08-19T02:52:05.082Z,77.36
2022-08-19T02:53:05.070Z,77.38
2022-08-19T02:54:05.062Z,77.40
2022-08-19T02:55:05.036Z,77.41
2022-08-19T02:56:05.035Z,77.39
2022-08-19T02:57:05.013Z,77.31
2022-08-19T02:58:04.997Z,77.24
2022-08-19T02:59:05.010Z,77.18
2022-08-19T03:00:04.981Z,77.17
2022-08-19T03:01:05.059Z,77.09
2022-08-19T03:02:04.964Z,77.12
2022-08-19T03:03:04.949Z,77.14
2022-08-19T03:04:04.929Z,77.15
2022-08-19T03:05:04.937Z,77.15
2022-08-19T03:06:04.910Z,77.26
2022-08-19T03:07:10.750Z,77.21
2022-08-19T03:08:05.887Z,77.17
2022-08-19T03:09:04.867Z,77.16
2022-08-19T03:10:04.878Z,77.14
2022-08-19T03:11:04.846Z,77.15
2022-08-19T03:12:04.844Z,77.16
2022-08-19T03:13:04.848Z,77.27
2022-08-19T03:14:04.828Z,77.31
2022-08-19T03:15:04.846Z,77.29
2022-08-19T03:16:04.790Z,77.43
2022-08-19T03:17:04.773Z,77.52
2022-08-19T03:18:04.769Z,77.57
2022-08-19T03:19:04.745Z,77.65
2022-08-19T03:20:04.757Z,77.76
2022-08-19T03:21:04.728Z,77.81
2022-08-19T03:22:04.717Z,77.79
2022-08-19T03:23:04.704Z,77.77
2022-08-19T03:24:04.699Z,77.82
2022-08-19T03:25:04.696Z,77.81
2022-08-19T03:26:15.795Z,77.65
2022-08-19T03:27:05.656Z,77.61
2022-08-19T03:28:04.660Z,77.63
2022-08-19T03:29:05.566Z,77.67
2022-08-19T03:30:04.642Z,77.69
2022-08-19T03:31:04.666Z,77.78
2022-08-19T03:32:05.615Z,77.83
2022-08-19T03:33:04.590Z,77.95
2022-08-19T03:34:04.578Z,78.19
2022-08-19T03:35:04.570Z,78.39
2022-08-19T03:36:04.550Z,78.32
2022-08-19T03:37:04.550Z,78.51
2022-08-19T03:38:04.534Z,78.62
2022-08-19T03:39:04.521Z,78.69
2022-08-19T03:40:04.547Z,78.71
2022-08-19T03:41:04.495Z,78.67
2022-08-19T03:42:32.229Z,78.72
2022-08-19T03:43:05.485Z,78.71
2022-08-19T03:44:04.470Z,78.75
2022-08-19T03:45:04.462Z,78.77
2022-08-19T03:46:04.433Z,78.76
2022-08-19T03:47:04.430Z,78.75
2022-08-19T03:48:04.415Z,78.74
2022-08-19T03:49:04.419Z,78.76
2022-08-19T03:50:04.393Z,78.81
2022-08-19T03:51:04.388Z,78.91
2022-08-19T03:52:04.365Z,78.93
2022-08-19T03:53:04.343Z,78.93
2022-08-19T03:54:04.343Z,78.94
2022-08-19T03:55:04.333Z,78.94
2022-08-19T03:56:04.333Z,78.96
2022-08-19T03:57:04.302Z,78.93
2022-08-19T03:58:04.302Z,78.92
2022-08-19T03:59:04.285Z,78.89
2022-08-19T04:00:13.403Z,78.88
2022-08-19T04:01:05.323Z,78.88
2022-08-19T04:02:04.245Z,78.88
2022-08-19T04:03:04.246Z,78.93
2022-08-19T04:04:04.828Z,79.01
2022-08-19T04:05:04.207Z,79.07
2022-08-19T04:06:04.227Z,79.18
2022-08-19T04:07:04.198Z,79.31
2022-08-19T04:08:04.177Z,79.39
2022-08-19T04:09:04.170Z,79.54
2022-08-19T04:10:04.163Z,79.61
2022-08-19T04:11:04.166Z,79.87
2022-08-19T04:12:04.140Z,79.95
2022-08-19T04:13:04.129Z,79.99
2022-08-19T04:14:04.427Z,80.00
2022-08-19T04:15:04.098Z,80.02
2022-08-19T04:16:04.094Z,79.94
2022-08-19T04:17:04.100Z,79.87
2022-08-19T04:18:04.059Z,79.81
2022-08-19T04:19:04.048Z,79.74
2022-08-19T04:20:06.969Z,79.68
2022-08-19T04:21:04.031Z,79.67
2022-08-19T04:22:04.050Z,79.66
2022-08-19T04:23:04.006Z,79.71
2022-08-19T04:24:04.140Z,79.78
2022-08-19T04:25:03.978Z,79.81
2022-08-19T04:26:03.978Z,79.81
2022-08-19T04:27:03.991Z,79.98
2022-08-19T04:28:03.949Z,79.97
2022-08-19T04:29:03.942Z,79.88
2022-08-19T04:30:03.922Z,79.86
2022-08-19T04:31:03.913Z,79.71
2022-08-19T04:32:09.202Z,79.66
2022-08-19T04:33:04.902Z,79.61
2022-08-19T04:34:03.871Z,79.54
2022-08-19T04:35:17.630Z,79.56
2022-08-19T04:36:04.861Z,79.56
2022-08-19T04:37:03.839Z,79.57
2022-08-19T04:38:03.853Z,79.58
2022-08-19T04:39:03.823Z,79.59
2022-08-19T04:40:03.904Z,79.66
2022-08-19T04:41:03.803Z,79.73
2022-08-19T04:42:03.789Z,79.81
2022-08-19T04:43:03.768Z,79.92
2022-08-19T04:44:04.616Z,80.19
2022-08-19T04:45:03.742Z,80.35
2022-08-19T04:46:03.743Z,80.38
2022-08-19T04:47:03.726Z,80.48
2022-08-19T04:48:26.585Z,80.58
2022-08-19T04:49:05.500Z,80.57
2022-08-19T04:50:04.703Z,80.54
2022-08-19T04:51:03.684Z,80.56
2022-08-19T04:52:03.667Z,80.59
2022-08-19T04:53:03.653Z,80.55
2022-08-19T04:54:03.643Z,80.52
2022-08-19T04:55:03.638Z,80.54
2022-08-19T04:56:03.629Z,80.53
2022-08-19T04:57:03.606Z,80.53
2022-08-19T04:58:03.598Z,80.52
2022-08-19T04:59:03.590Z,80.53
2022-08-19T05:00:03.595Z,80.54
2022-08-19T05:01:03.589Z,80.53
2022-08-19T05:02:03.553Z,80.51
2022-08-19T05:03:03.538Z,80.54
2022-08-19T05:04:03.525Z,80.57
2022-08-19T05:05:03.530Z,80.60
2022-08-19T05:06:03.497Z,80.63
2022-08-19T05:07:03.495Z,80.64
2022-08-19T05:08:03.488Z,80.61
2022-08-19T05:09:03.474Z,80.57
2022-08-19T05:10:03.480Z,80.55
2022-08-19T05:11:03.440Z,80.52
2022-08-19T05:12:03.438Z,80.48
2022-08-19T05:13:03.429Z,80.44
2022-08-19T05:14:03.416Z,80.38
2022-08-19T05:15:03.412Z,80.24
2022-08-19T05:16:03.391Z,79.95
2022-08-19T05:17:26.219Z,79.87
2022-08-19T05:18:04.360Z,79.83
2022-08-19T05:19:03.350Z,79.78
2022-08-19T05:20:03.349Z,79.76
2022-08-19T05:21:03.332Z,79.66
2022-08-19T05:22:03.332Z,79.65
2022-08-19T05:23:03.303Z,79.65
2022-08-19T05:24:04.292Z,79.57
2022-08-19T05:25:12.746Z,79.55
2022-08-19T05:26:04.273Z,79.47
2022-08-19T05:27:03.265Z,79.32
2022-08-19T05:28:03.244Z,79.23
2022-08-19T05:29:03.232Z,79.12
2022-08-19T05:30:03.239Z,78.97
2022-08-19T05:31:03.204Z,78.91
2022-08-19T05:32:03.200Z,78.80
2022-08-19T05:33:03.419Z,78.65
2022-08-19T05:34:03.177Z,78.40
2022-08-19T05:35:03.179Z,78.26
2022-08-19T05:36:03.152Z,78.08
2022-08-19T05:37:03.138Z,78.01
2022-08-19T05:38:03.127Z,77.98
2022-08-19T05:39:03.120Z,77.89
2022-08-19T05:40:03.124Z,77.76
2022-08-19T05:41:03.128Z,77.56
2022-08-19T05:42:03.072Z,77.43
2022-08-19T05:43:03.072Z,77.37
2022-08-19T05:44:03.062Z,77.20
2022-08-19T05:45:03.065Z,77.05
2022-08-19T05:46:03.032Z,77.01
2022-08-19T05:47:03.027Z,76.84
2022-08-19T05:48:03.006Z,76.69
2022-08-19T05:49:03.002Z,76.54
2022-08-19T05:50:05.060Z,76.35
2022-08-19T05:51:02.985Z,76.05
2022-08-19T05:52:02.963Z,75.65
2022-08-19T05:53:02.946Z,75.31
2022-08-19T05:54:02.934Z,75.09
2022-08-19T05:55:02.934Z,74.84
2022-08-19T05:56:02.920Z,74.75
2022-08-19T05:57:02.914Z,74.43
2022-08-19T05:58:02.885Z,74.65
2022-08-19T05:59:02.884Z,74.62
2022-08-19T06:00:02.894Z,74.27
2022-08-19T06:01:02.866Z,73.99
2022-08-19T06:02:02.846Z,73.94
2022-08-19T06:03:02.984Z,73.79
2022-08-19T06:04:03.826Z,73.47
2022-08-19T06:05:02.837Z,73.19
2022-08-19T06:06:02.819Z,72.83
2022-08-19T06:07:12.824Z,72.72
2022-08-19T06:08:03.793Z,72.23
2022-08-19T06:09:02.774Z,72.07
2022-08-19T06:10:02.779Z,71.66
2022-08-19T06:11:02.747Z,71.24
2022-08-19T06:12:02.739Z,71.01
2022-08-19T06:13:02.719Z,70.60
2022-08-19T06:14:02.720Z,70.32
2022-08-19T06:15:02.721Z,70.11
2022-08-19T06:16:02.690Z,69.82
2022-08-19T06:17:06.608Z,69.46
2022-08-19T06:18:02.664Z,69.17
2022-08-19T06:19:02.650Z,68.66
2022-08-19T06:20:02.670Z,67.80
2022-08-19T06:21:02.635Z,67.52
2022-08-19T06:22:02.612Z,67.20
2022-08-19T06:23:02.608Z,67.06
2022-08-19T06:24:02.594Z,66.56
2022-08-19T06:25:02.581Z,66.02
2022-08-19T06:26:02.584Z,65.66
2022-08-19T06:27:02.568Z,65.95
2022-08-19T06:28:17.979Z,65.95
2022-08-19T06:29:03.538Z,65.94
2022-08-19T06:30:02.532Z,65.79
2022-08-19T06:31:02.523Z,65.81
2022-08-19T06:32:02.505Z,65.74
2022-08-19T06:33:02.500Z,65.45
2022-08-19T06:34:02.504Z,65.45
2022-08-19T06:35:02.498Z,65.54
2022-08-19T06:36:02.454Z,65.74
2022-08-19T06:37:02.507Z,65.84
2022-08-19T06:38:02.584Z,66.00
2022-08-19T06:39:02.425Z,65.89
2022-08-19T06:40:02.475Z,65.83
2022-08-19T06:41:02.449Z,65.99
2022-08-19T06:42:03.397Z,66.16
2022-08-19T06:43:02.572Z,66.22
2022-08-19T06:44:02.363Z,66.49
2022-08-19T06:45:02.377Z,66.71
2022-08-19T06:46:03.374Z,66.99
2022-08-19T06:47:02.328Z,66.93
2022-08-19T06:48:03.354Z,67.02
2022-08-19T06:49:02.321Z,67.09
2022-08-19T06:50:02.847Z,67.20
2022-08-19T06:51:02.307Z,67.38
2022-08-19T06:52:03.270Z,67.47
2022-08-19T06:53:04.613Z,67.34
2022-08-19T06:54:02.248Z,67.47
2022-08-19T06:55:02.273Z,67.46
2022-08-19T06:56:02.227Z,67.34
2022-08-19T06:57:02.222Z,67.29
2022-08-19T06:58:02.202Z,67.26
2022-08-19T06:59:02.205Z,67.32
2022-08-19T07:00:02.257Z,67.41
2022-08-19T07:01:05.666Z,67.45
2022-08-19T07:02:03.158Z,66.97
2022-08-19T07:03:06.203Z,66.90
2022-08-19T07:04:03.142Z,67.08
2022-08-19T07:05:02.150Z,67.04
2022-08-19T07:06:02.113Z,67.37
2022-08-19T07:07:19.928Z,67.30
2022-08-19T07:08:05.086Z,67.13
2022-08-19T07:09:02.096Z,67.27
2022-08-19T07:10:03.932Z,67.40
2022-08-19T07:11:02.062Z,67.60
2022-08-19T07:12:03.046Z,67.51
2022-08-19T07:13:02.040Z,67.31
2022-08-19T07:14:02.024Z,67.11
2022-08-19T07:15:02.032Z,67.19
2022-08-19T07:16:02.012Z,67.40
2022-08-19T07:17:01.996Z,67.36
2022-08-19T07:18:01.973Z,67.30
2022-08-19T07:19:11.794Z,67.03
2022-08-19T07:20:04.986Z,67.21
2022-08-19T07:21:01.949Z,67.17
2022-08-19T07:22:01.936Z,67.11
2022-08-19T07:23:01.927Z,67.24
2022-08-19T07:24:05.390Z,67.10
2022-08-19T07:25:01.904Z,66.91
2022-08-19T07:27:01.866Z,66.76
2022-08-19T07:28:01.906Z,66.78
2022-08-19T07:29:01.909Z,66.72
2022-08-19T07:30:01.857Z,66.46
2022-08-19T07:31:01.829Z,66.29
2022-08-19T07:32:01.825Z,65.96
2022-08-19T07:33:03.394Z,66.26
2022-08-19T07:34:01.784Z,66.05
2022-08-19T07:35:01.926Z,65.29
2022-08-19T07:36:01.769Z,65.36
2022-08-19T07:37:01.770Z,65.03
2022-08-19T07:38:01.748Z,64.63
2022-08-19T07:39:01.739Z,64.61
2022-08-19T07:40:02.089Z,64.43
2022-08-19T07:41:01.721Z,64.52
2022-08-19T07:42:01.699Z,64.10
2022-08-19T07:43:01.699Z,64.40
2022-08-19T07:44:01.690Z,63.79
2022-08-19T07:45:01.667Z,63.83
2022-08-19T07:46:01.740Z,64.17
2022-08-19T07:47:01.657Z,64.25
2022-08-19T07:48:01.918Z,63.60
2022-08-19T07:49:01.632Z,63.03
2022-08-19T07:50:01.618Z,62.70
2022-08-19T07:51:01.611Z,62.81
2022-08-19T07:52:01.585Z,62.48
2022-08-19T07:53:01.583Z,62.29
2022-08-19T07:54:01.581Z,61.98
2022-08-19T07:55:01.585Z,62.07
2022-08-19T07:56:01.537Z,61.68
2022-08-19T07:57:01.534Z,61.52
2022-08-19T07:58:01.532Z,61.39
2022-08-19T07:59:01.515Z,61.76
2022-08-19T08:00:01.506Z,61.73
2022-08-19T08:01:01.506Z,61.25
2022-08-19T08:02:01.578Z,61.30
2022-08-19T08:03:01.466Z,61.18
2022-08-19T08:04:01.513Z,61.18
2022-08-19T08:05:01.477Z,61.24
2022-08-19T08:06:01.437Z,61.09
2022-08-19T08:07:01.437Z,61.03
2022-08-19T08:08:01.423Z,60.50
2022-08-19T08:09:01.398Z,60.85
2022-08-19T08:10:03.146Z,60.94
2022-08-19T08:11:01.371Z,60.73
2022-08-19T08:12:04.994Z,60.37
2022-08-19T08:13:09.221Z,59.76
2022-08-19T08:14:04.676Z,60.00
2022-08-19T08:15:01.328Z,60.15
2022-08-19T08:16:01.328Z,59.84
2022-08-19T08:17:01.310Z,59.47
2022-08-19T08:18:01.301Z,59.80
2022-08-19T08:19:01.322Z,59.26
2022-08-19T08:20:01.294Z,59.18
2022-08-19T08:21:01.269Z,59.27
2022-08-19T08:22:01.241Z,59.30
2022-08-19T08:23:01.228Z,59.16
2022-08-19T08:25:01.241Z,59.25
2022-08-19T08:26:01.204Z,59.46
2022-08-19T08:27:01.253Z,59.38
2022-08-19T08:28:01.276Z,59.11
2022-08-19T08:29:01.172Z,59.19
2022-08-19T08:30:02.913Z,58.99
2022-08-19T08:31:01.165Z,58.96
2022-08-19T08:32:01.138Z,58.42
2022-08-19T08:33:02.571Z,58.18
2022-08-19T08:34:01.136Z,58.61
2022-08-19T08:35:01.120Z,58.45
2022-08-19T08:36:01.093Z,58.72
2022-08-19T08:37:01.082Z,58.44
2022-08-19T08:38:01.054Z,58.26
2022-08-19T08:39:01.047Z,58.05
2022-08-19T08:40:01.124Z,58.34
2022-08-19T08:41:01.048Z,58.38
2022-08-19T08:42:01.008Z,58.51
2022-08-19T08:44:00.993Z,58.36
2022-08-19T08:45:01.018Z,58.52
2022-08-19T08:46:00.988Z,57.61
2022-08-19T08:47:00.968Z,57.64
2022-08-19T08:48:00.980Z,57.61
2022-08-19T08:49:00.968Z,57.88
2022-08-19T08:50:00.952Z,58.19
2022-08-19T08:51:00.916Z,57.77
2022-08-19T08:52:00.916Z,57.34
2022-08-19T08:53:00.912Z,56.35
2022-08-19T08:54:00.881Z,56.03
2022-08-19T08:55:00.889Z,55.54
2022-08-19T08:56:00.854Z,55.96
2022-08-19T08:57:00.859Z,56.12
2022-08-19T08:58:00.835Z,56.41
2022-08-19T08:59:00.839Z,56.15
2022-08-19T09:00:00.844Z,56.37
2022-08-19T09:01:00.792Z,56.66
2022-08-19T09:02:00.827Z,56.86
2022-08-19T09:03:00.772Z,56.99
2022-08-19T09:04:02.915Z,57.12
2022-08-19T09:05:00.813Z,56.32
2022-08-19T09:06:00.855Z,55.27
2022-08-19T09:07:00.744Z,55.22
2022-08-19T09:08:00.727Z,55.02
2022-08-19T09:09:00.713Z,54.69
2022-08-19T09:10:00.697Z,54.16
2022-08-19T09:11:00.695Z,53.85
2022-08-19T09:12:00.669Z,53.66
2022-08-19T09:13:00.677Z,54.04
2022-08-19T09:14:00.645Z,53.98
2022-08-19T09:15:00.685Z,54.74
2022-08-19T09:16:00.624Z,54.77
2022-08-19T09:17:00.615Z,54.45
2022-08-19T09:18:00.604Z,54.21
2022-08-19T09:19:00.585Z,53.83
2022-08-19T09:20:01.577Z,54.20
2022-08-19T09:21:00.583Z,54.43
2022-08-19T09:22:00.556Z,54.87
2022-08-19T09:23:00.547Z,55.05
2022-08-19T09:24:00.533Z,54.42
2022-08-19T09:25:00.546Z,53.87
2022-08-19T09:26:00.514Z,52.96
2022-08-19T09:27:00.499Z,53.15
2022-08-19T09:28:03.053Z,54.01
2022-08-19T09:29:01.477Z,54.43
2022-08-19T09:30:00.461Z,54.27
2022-08-19T09:31:00.488Z,53.83
2022-08-19T09:32:00.458Z,54.11
2022-08-19T09:33:00.437Z,54.15
2022-08-19T09:34:00.410Z,53.75
2022-08-19T09:35:00.421Z,53.27
2022-08-19T09:36:00.410Z,53.04
2022-08-19T09:37:00.486Z,52.89
2022-08-19T09:38:00.490Z,52.73
2022-08-19T09:39:00.382Z,53.29
2022-08-19T09:40:00.426Z,53.73
2022-08-19T09:41:00.342Z,53.78
2022-08-19T09:42:00.338Z,54.19
2022-08-19T09:43:00.324Z,54.22
2022-08-19T09:44:00.304Z,53.82
2022-08-19T09:45:00.509Z,53.78
2022-08-19T09:46:00.274Z,53.85
2022-08-19T09:47:00.277Z,53.90
2022-08-19T09:48:00.256Z,53.73
2022-08-19T09:49:06.102Z,53.62
2022-08-19T09:50:01.265Z,53.53
2022-08-19T09:51:00.216Z,53.64
2022-08-19T09:52:00.220Z,53.33
2022-08-19T09:53:00.225Z,52.99
2022-08-19T09:54:00.193Z,52.83
2022-08-19T09:55:00.583Z,52.27
2022-08-19T09:56:00.187Z,52.50
2022-08-19T09:57:00.148Z,52.17
2022-08-19T09:58:00.144Z,51.85
2022-08-19T09:59:00.136Z,51.85
2022-08-19T10:00:00.180Z,52.03
2022-08-19T10:01:00.158Z,52.07
2022-08-19T10:02:03.723Z,52.02
2022-08-19T10:03:01.167Z,51.99
2022-08-19T10:04:00.151Z,51.73
2022-08-19T10:05:00.149Z,51.88
2022-08-19T10:06:00.073Z,51.85
2022-08-19T10:07:00.052Z,51.89
2022-08-19T10:08:00.039Z,52.07
2022-08-19T10:09:00.019Z,52.42
2022-08-19T10:10:00.024Z,52.44
2022-08-19T10:11:00.018Z,52.76
2022-08-19T10:12:00.992Z,53.19
2022-08-19T10:12:59.972Z,53.45
2022-08-19T10:13:59.949Z,53.62
2022-08-19T10:14:59.965Z,53.41
2022-08-19T10:15:59.941Z,53.40
2022-08-19T10:16:59.939Z,53.22
2022-08-19T10:17:59.910Z,53.24
2022-08-19T10:18:59.895Z,53.22
2022-08-19T10:19:59.921Z,53.10
2022-08-19T10:20:59.922Z,53.03
2022-08-19T10:22:00.554Z,53.19
2022-08-19T10:22:59.877Z,53.22
2022-08-19T10:23:59.853Z,53.33
2022-08-19T10:24:59.834Z,53.50
2022-08-19T10:25:59.842Z,53.47
2022-08-19T10:27:00.146Z,53.02
2022-08-19T10:27:59.816Z,53.13
2022-08-19T10:28:59.783Z,53.37
2022-08-19T10:29:59.818Z,53.25
2022-08-19T10:30:59.777Z,52.86
2022-08-19T10:32:02.814Z,52.35
2022-08-19T10:32:59.765Z,52.69
2022-08-19T10:33:59.754Z,52.16
2022-08-19T10:34:59.732Z,51.90
2022-08-19T10:35:59.706Z,51.65
2022-08-19T10:37:01.142Z,51.81
2022-08-19T10:38:00.272Z,51.40
2022-08-19T10:38:59.687Z,51.19
2022-08-19T10:39:59.737Z,51.08
2022-08-19T10:40:59.647Z,51.48
2022-08-19T10:41:59.639Z,52.34
2022-08-19T10:42:59.633Z,52.84
2022-08-19T10:44:04.021Z,53.13
2022-08-19T10:45:00.640Z,52.72
2022-08-19T10:45:59.599Z,52.53
2022-08-19T10:46:59.593Z,52.58
2022-08-19T10:47:59.574Z,53.00
2022-08-19T10:48:59.559Z,52.83
2022-08-19T10:49:59.665Z,52.05
2022-08-19T10:50:59.531Z,52.31
2022-08-19T10:51:59.530Z,52.53
2022-08-19T10:52:59.520Z,52.89
2022-08-19T10:53:59.511Z,53.03
2022-08-19T10:54:59.514Z,52.82
2022-08-19T10:56:00.508Z,52.63
2022-08-19T10:56:59.471Z,52.35
2022-08-19T10:58:02.678Z,51.87
2022-08-19T10:58:59.433Z,51.78
2022-08-19T10:59:59.485Z,51.53
2022-08-19T11:00:59.462Z,50.96
2022-08-19T11:01:59.423Z,50.55
2022-08-19T11:02:59.407Z,50.40
2022-08-19T11:03:59.395Z,50.59
2022-08-19T11:05:03.093Z,51.34
2022-08-19T11:06:00.404Z,51.88
2022-08-19T11:06:59.363Z,52.38
2022-08-19T11:07:59.360Z,52.82
2022-08-19T11:08:59.334Z,53.12
2022-08-19T11:09:59.336Z,53.13
2022-08-19T11:10:59.300Z,53.41
2022-08-19T11:11:59.308Z,52.75
2022-08-19T11:12:59.295Z,51.45
2022-08-19T11:13:59.275Z,51.42
2022-08-19T11:14:59.276Z,51.42
2022-08-19T11:16:01.772Z,51.16
2022-08-19T11:17:00.253Z,51.27
2022-08-19T11:17:59.232Z,51.10
2022-08-19T11:18:59.211Z,51.03
2022-08-19T11:19:59.216Z,51.37
2022-08-19T11:20:59.198Z,51.48
2022-08-19T11:22:00.163Z,51.83
2022-08-19T11:22:59.178Z,51.91
2022-08-19T11:23:59.180Z,51.91
2022-08-19T11:24:59.174Z,52.38
2022-08-19T11:25:59.141Z,51.88
2022-08-19T11:26:59.124Z,51.80
2022-08-19T11:27:59.120Z,51.94
2022-08-19T11:28:59.107Z,52.66
2022-08-19T11:29:59.118Z,51.89
2022-08-19T11:30:59.081Z,51.36
2022-08-19T11:31:59.079Z,51.20
2022-08-19T11:32:59.051Z,51.48
2022-08-19T11:33:59.049Z,51.20
2022-08-19T11:34:59.055Z,50.85
2022-08-19T11:35:59.061Z,50.79
2022-08-19T11:36:59.012Z,51.07
2022-08-19T11:37:59.030Z,50.33
2022-08-19T11:38:58.994Z,49.77
2022-08-19T11:39:59.047Z,50.01
2022-08-19T11:40:58.969Z,50.64
2022-08-19T11:41:58.946Z,51.04
2022-08-19T11:42:58.936Z,50.88
2022-08-19T11:43:58.939Z,50.45
2022-08-19T11:44:58.937Z,50.39
2022-08-19T11:45:58.903Z,50.58
2022-08-19T11:46:58.913Z,50.43
2022-08-19T11:47:59.883Z,50.98
2022-08-19T11:48:58.869Z,50.04
2022-08-19T11:49:58.879Z,50.54
2022-08-19T11:50:58.855Z,49.43
2022-08-19T11:51:58.847Z,49.61
2022-08-19T11:52:58.816Z,49.50
2022-08-19T11:53:58.817Z,49.54
2022-08-19T11:54:58.807Z,49.13
2022-08-19T11:55:58.818Z,49.29
2022-08-19T11:56:58.788Z,49.23
2022-08-19T11:57:58.767Z,49.53
2022-08-19T11:58:58.767Z,49.19
2022-08-19T11:59:58.777Z,49.35
2022-08-19T12:00:58.742Z,49.68
2022-08-19T12:01:58.718Z,49.66
2022-08-19T12:02:58.710Z,49.78
2022-08-19T12:03:58.762Z,49.95
2022-08-19T12:04:58.697Z,50.09
2022-08-19T12:05:58.682Z,49.67
2022-08-19T12:06:58.670Z,49.03
2022-08-19T12:07:58.660Z,48.62
2022-08-19T12:08:58.649Z,48.25
2022-08-19T12:09:58.631Z,47.92
2022-08-19T12:10:58.639Z,47.76
2022-08-19T12:11:58.642Z,47.75
2022-08-19T12:12:58.892Z,47.73
2022-08-19T12:13:58.596Z,47.41
2022-08-19T12:14:58.613Z,47.89
2022-08-19T12:15:58.572Z,48.10
2022-08-19T12:16:58.552Z,47.74
2022-08-19T12:17:58.542Z,47.66
2022-08-19T12:18:58.550Z,47.80
2022-08-19T12:19:58.541Z,48.28
2022-08-19T12:20:58.504Z,48.53
2022-08-19T12:21:58.493Z,49.05
2022-08-19T12:22:58.485Z,48.81
2022-08-19T12:23:58.465Z,48.89
2022-08-19T12:24:58.465Z,48.83
2022-08-19T12:25:58.474Z,48.85
2022-08-19T12:27:00.938Z,48.85
2022-08-19T12:27:58.839Z,48.67
2022-08-19T12:28:58.415Z,48.35
2022-08-19T12:29:58.427Z,48.03
2022-08-19T12:30:58.395Z,47.68
2022-08-19T12:31:58.400Z,47.37
2022-08-19T12:32:58.408Z,47.00
2022-08-19T12:33:58.361Z,47.47
2022-08-19T12:34:58.387Z,47.62
2022-08-19T12:35:58.347Z,47.00
2022-08-19T12:36:58.337Z,46.70
2022-08-19T12:37:58.539Z,46.56
2022-08-19T12:38:58.308Z,46.37
2022-08-19T12:39:58.329Z,46.15
2022-08-19T12:41:00.303Z,46.24
2022-08-19T12:41:58.268Z,45.98
2022-08-19T12:42:58.248Z,45.24
2022-08-19T12:43:58.249Z,44.98
2022-08-19T12:44:58.238Z,44.80
2022-08-19T12:45:58.216Z,44.68
2022-08-19T12:46:58.217Z,44.78
2022-08-19T12:47:58.448Z,45.62
2022-08-19T12:48:58.179Z,45.85
2022-08-19T12:49:58.190Z,45.08
2022-08-19T12:50:58.170Z,44.80
2022-08-19T12:51:58.156Z,45.15
2022-08-19T12:52:58.153Z,45.19
2022-08-19T12:53:58.142Z,44.92
2022-08-19T12:54:58.117Z,44.35